createdAt,value
2018-05-21T00:01:26.798Z,13.40
2018-05-21T00:03:54.558Z,13.40
2018-05-21T00:06:22.288Z,13.40
2018-05-21T00:08:49.957Z,13.30
2018-05-21T00:11:17.722Z,13.30
2018-05-21T00:13:45.390Z,13.20
2018-05-21T00:16:13.156Z,13.20
2018-05-21T00:18:40.905Z,13.20
2018-05-21T00:21:08.602Z,13.10
2018-05-21T00:23:36.319Z,13.10
2018-05-21T00:26:04.001Z,13.00
2018-05-21T00:28:31.902Z,13.00
2018-05-21T00:30:59.744Z,12.90
2018-05-21T00:33:27.410Z,12.90
2018-05-21T00:35:55.261Z,12.90
2018-05-21T00:38:22.945Z,12.80
2018-05-21T00:40:50.802Z,12.80
2018-05-21T00:43:18.523Z,12.70
2018-05-21T00:45:46.334Z,12.70
2018-05-21T00:48:14.023Z,12.70
2018-05-21T00:50:41.866Z,12.70
2018-05-21T00:53:09.625Z,12.70
2018-05-21T00:55:37.502Z,12.60
2018-05-21T00:58:05.182Z,12.60
2018-05-21T01:00:33.059Z,12.60
2018-05-21T01:03:00.728Z,12.60
2018-05-21T01:13:47.269Z,12.50
2018-05-21T01:16:14.966Z,12.40
2018-05-21T01:18:42.673Z,12.40
2018-05-21T01:21:10.480Z,12.30
2018-05-21T01:23:38.134Z,12.40
2018-05-21T01:26:05.821Z,12.40
2018-05-21T01:28:33.482Z,12.40
2018-05-21T01:31:01.166Z,12.30
2018-05-21T01:33:28.909Z,12.30
2018-05-21T01:35:56.583Z,12.30
2018-05-21T01:38:24.280Z,12.40
2018-05-21T01:40:51.977Z,12.30
2018-05-21T01:43:19.734Z,12.30
2018-05-21T01:45:47.420Z,12.40
2018-05-21T01:48:15.095Z,12.50
2018-05-21T01:50:42.787Z,12.60
2018-05-21T01:53:11.312Z,12.50
2018-05-21T01:55:39.001Z,12.50
2018-05-21T01:58:06.688Z,12.60
2018-05-21T02:00:35.208Z,12.70
2018-05-21T02:03:02.893Z,12.70
2018-05-21T02:05:30.659Z,12.70
2018-05-21T02:07:58.422Z,12.80
2018-05-21T02:10:26.101Z,12.80
2018-05-21T02:12:53.780Z,12.90
2018-05-21T02:15:21.534Z,12.90
2018-05-21T02:17:49.195Z,12.90
2018-05-21T02:20:16.876Z,12.90
2018-05-21T02:22:44.592Z,12.90
2018-05-21T02:25:12.263Z,12.80
2018-05-21T02:27:39.954Z,12.90
2018-05-21T02:30:07.622Z,12.80
2018-05-21T02:32:35.301Z,12.80
2018-05-21T02:35:03.826Z,12.70
2018-05-21T02:37:31.522Z,12.70
2018-05-21T02:39:59.285Z,12.60
2018-05-21T02:42:27.023Z,12.50
2018-05-21T02:44:54.694Z,12.50
2018-05-21T02:47:22.578Z,12.50
2018-05-21T02:49:50.319Z,12.50
2018-05-21T02:52:18.005Z,12.50
2018-05-21T02:54:45.702Z,12.50
2018-05-21T02:57:14.221Z,12.50
2018-05-21T02:59:41.884Z,12.50
2018-05-21T03:02:09.667Z,12.60
2018-05-21T03:04:37.471Z,12.60
2018-05-21T03:07:05.195Z,12.60
2018-05-21T03:09:32.856Z,12.70
2018-05-21T03:12:00.543Z,12.70
2018-05-21T03:14:28.282Z,12.70
2018-05-21T03:16:56.037Z,12.70
2018-05-21T03:19:23.810Z,12.80
2018-05-21T03:21:51.570Z,12.80
2018-05-21T03:24:19.327Z,12.80
2018-05-21T03:26:47.012Z,12.80
2018-05-21T03:29:14.671Z,12.80
2018-05-21T03:31:42.335Z,12.80
2018-05-21T03:34:10.089Z,12.80
2018-05-21T03:36:37.860Z,12.80
2018-05-21T03:39:05.560Z,12.70
2018-05-21T03:41:33.281Z,12.80
2018-05-21T03:44:00.972Z,12.90
2018-05-21T03:46:28.709Z,12.90
2018-05-21T03:48:56.403Z,12.90
2018-05-21T03:51:24.062Z,13.00
2018-05-21T03:53:51.756Z,13.00
2018-05-21T03:56:20.183Z,13.10
2018-05-21T03:58:53.828Z,13.10
2018-05-21T04:01:27.337Z,13.10
2018-05-21T04:03:55.799Z,13.10
2018-05-21T04:06:23.451Z,13.10
2018-05-21T04:08:51.141Z,13.10
2018-05-21T04:11:18.810Z,13.20
2018-05-21T04:13:47.349Z,13.30
2018-05-21T04:16:15.098Z,13.30
2018-05-21T04:18:42.790Z,13.30
2018-05-21T04:21:10.526Z,13.40
2018-05-21T04:23:38.219Z,13.40
2018-05-21T04:26:05.912Z,13.50
2018-05-21T04:28:33.581Z,13.50
2018-05-21T04:31:02.017Z,13.50
2018-05-21T04:33:29.732Z,13.50
2018-05-21T04:35:58.161Z,13.60
2018-05-21T04:38:25.921Z,13.60
2018-05-21T04:40:53.684Z,13.70
2018-05-21T04:43:21.435Z,13.70
2018-05-21T04:45:49.212Z,13.70
2018-05-21T04:48:16.891Z,13.70
2018-05-21T04:50:44.557Z,13.80
2018-05-21T04:53:12.275Z,13.80
2018-05-21T04:55:40.805Z,13.90
2018-05-21T04:58:08.533Z,13.80
2018-05-21T05:00:36.323Z,13.90
2018-05-21T05:03:04.001Z,14.00
2018-05-21T05:05:33.283Z,14.10
2018-05-21T05:08:00.959Z,14.10
2018-05-21T05:10:28.693Z,14.10
2018-05-21T05:12:56.356Z,14.10
2018-05-21T05:15:24.040Z,14.10
2018-05-21T05:17:51.817Z,14.20
2018-05-21T05:20:19.554Z,14.20
2018-05-21T05:22:47.235Z,14.30
2018-05-21T05:25:14.974Z,14.30
2018-05-21T05:27:42.643Z,14.20
2018-05-21T05:30:10.323Z,14.40
2018-05-21T05:32:38.091Z,14.50
2018-05-21T05:35:05.769Z,14.50
2018-05-21T05:37:33.430Z,14.50
2018-05-21T05:40:01.167Z,14.50
2018-05-21T05:42:28.937Z,14.60
2018-05-21T05:44:56.685Z,14.70
2018-05-21T05:47:24.363Z,14.80
2018-05-21T05:49:52.057Z,14.80
2018-05-21T05:52:19.781Z,14.90
2018-05-21T05:54:47.573Z,15.00
2018-05-21T05:57:15.243Z,15.00
2018-05-21T05:59:42.934Z,15.20
2018-05-21T06:02:11.467Z,15.20
2018-05-21T06:04:39.148Z,15.20
2018-05-21T06:07:06.890Z,15.40
2018-05-21T06:09:34.662Z,15.50
2018-05-21T06:12:02.324Z,15.60
2018-05-21T06:14:30.011Z,15.70
2018-05-21T06:16:57.709Z,15.90
2018-05-21T06:19:26.224Z,16.10
2018-05-21T06:21:53.988Z,16.00
2018-05-21T06:24:21.674Z,16.20
2018-05-21T06:26:49.335Z,16.40
2018-05-21T06:29:17.074Z,16.40
2018-05-21T06:31:44.749Z,16.50
2018-05-21T06:34:12.829Z,16.60
2018-05-21T06:36:40.311Z,16.80
2018-05-21T06:39:08.007Z,16.80
2018-05-21T06:41:36.513Z,17.10
2018-05-21T06:44:04.200Z,17.10
2018-05-21T06:46:31.875Z,17.20
2018-05-21T06:48:59.621Z,17.40
2018-05-21T06:51:27.345Z,17.50
2018-05-21T06:53:55.803Z,17.60
2018-05-21T06:56:23.541Z,17.60
2018-05-21T06:58:51.283Z,17.60
2018-05-21T07:01:19.079Z,17.70
2018-05-21T07:03:46.741Z,17.80
2018-05-21T07:06:14.469Z,18.00
2018-05-21T07:08:42.154Z,18.20
2018-05-21T07:11:09.911Z,18.30
2018-05-21T07:13:37.584Z,18.50
2018-05-21T07:16:05.265Z,18.50
2018-05-21T07:18:32.935Z,18.70
2018-05-21T07:21:01.392Z,19.00
2018-05-21T07:23:29.066Z,19.00
2018-05-21T07:25:56.762Z,19.00
2018-05-21T07:28:25.289Z,19.30
2018-05-21T07:30:53.065Z,19.30
2018-05-21T07:33:20.731Z,19.50
2018-05-21T07:35:48.491Z,19.70
2018-05-21T07:38:16.180Z,19.80
2018-05-21T07:40:43.921Z,20.00
2018-05-21T07:43:11.596Z,20.10
2018-05-21T07:45:39.325Z,20.30
2018-05-21T07:48:06.997Z,20.30
2018-05-21T07:50:34.677Z,20.40
2018-05-21T07:53:02.363Z,20.50
2018-05-21T07:55:30.051Z,20.70
2018-05-21T07:57:58.507Z,20.70
2018-05-21T08:00:26.260Z,20.70
2018-05-21T08:02:53.918Z,20.80
2018-05-21T08:05:21.736Z,20.80
2018-05-21T08:07:49.353Z,20.90
2018-05-21T08:10:17.098Z,21.10
2018-05-21T08:12:44.785Z,21.10
2018-05-21T08:15:12.574Z,21.10
2018-05-21T08:17:40.243Z,21.10
2018-05-21T08:20:08.682Z,21.20
2018-05-21T08:22:36.381Z,21.10
2018-05-21T08:25:04.826Z,21.30
2018-05-21T08:27:32.535Z,21.30
2018-05-21T08:30:00.223Z,21.40
2018-05-21T08:32:28.066Z,21.50
2018-05-21T08:34:56.504Z,21.50
2018-05-21T08:37:24.194Z,21.50
2018-05-21T08:39:51.857Z,21.70
2018-05-21T08:42:19.546Z,21.80
2018-05-21T08:44:47.241Z,21.90
2018-05-21T08:47:14.945Z,21.90
2018-05-21T08:49:42.691Z,22.00
2018-05-21T08:52:10.530Z,22.00
2018-05-21T08:54:38.264Z,22.10
2018-05-21T08:57:06.791Z,22.20
2018-05-21T08:59:34.548Z,22.10
2018-05-21T09:02:02.331Z,22.20
2018-05-21T09:04:30.102Z,22.30
2018-05-21T09:06:57.845Z,22.50
2018-05-21T09:09:25.600Z,22.60
2018-05-21T09:11:53.408Z,22.60
2018-05-21T09:14:21.063Z,22.70
2018-05-21T09:16:48.740Z,22.60
2018-05-21T09:19:16.489Z,22.60
2018-05-21T09:21:44.134Z,22.50
2018-05-21T09:24:11.900Z,22.60
2018-05-21T09:26:39.586Z,22.50
2018-05-21T09:29:07.254Z,22.60
2018-05-21T09:31:34.948Z,22.60
2018-05-21T09:34:03.403Z,22.90
2018-05-21T09:36:31.120Z,22.90
2018-05-21T09:38:58.789Z,23.00
2018-05-21T09:41:26.465Z,22.90
2018-05-21T09:43:54.138Z,23.00
2018-05-21T09:46:21.801Z,22.80
2018-05-21T09:48:49.497Z,22.90
2018-05-21T09:51:17.159Z,23.10
2018-05-21T09:53:45.611Z,23.40
2018-05-21T09:56:13.290Z,23.40
2018-05-21T09:58:40.981Z,23.40
2018-05-21T10:01:09.487Z,23.80
2018-05-21T10:03:37.182Z,23.70
2018-05-21T10:06:04.868Z,23.70
2018-05-21T10:08:32.586Z,23.70
2018-05-21T10:11:00.271Z,23.60
2018-05-21T10:13:28.027Z,23.70
2018-05-21T10:15:55.778Z,23.70
2018-05-21T10:18:23.569Z,23.60
2018-05-21T10:20:51.314Z,23.70
2018-05-21T10:23:19.098Z,23.60
2018-05-21T10:25:46.763Z,23.50
2018-05-21T10:28:14.421Z,23.60
2018-05-21T10:30:42.093Z,23.70
2018-05-21T10:33:09.830Z,23.80
2018-05-21T10:35:37.505Z,23.80
2018-05-21T10:38:05.191Z,23.90
2018-05-21T10:40:32.926Z,23.80
2018-05-21T10:43:00.633Z,23.80
2018-05-21T10:45:29.174Z,23.90
2018-05-21T10:47:56.921Z,23.90
2018-05-21T10:50:25.425Z,23.80
2018-05-21T10:52:53.105Z,23.90
2018-05-21T10:55:20.779Z,24.10
2018-05-21T10:57:48.507Z,24.10
2018-05-21T11:00:16.188Z,24.00
2018-05-21T11:02:43.952Z,23.90
2018-05-21T11:05:11.629Z,24.00
2018-05-21T11:07:39.315Z,24.10
2018-05-21T11:10:07.767Z,24.20
2018-05-21T11:12:35.456Z,24.20
2018-05-21T11:15:03.126Z,24.40
2018-05-21T11:17:31.552Z,24.60
2018-05-21T11:19:59.331Z,24.60
2018-05-21T11:22:26.968Z,24.70
2018-05-21T11:24:54.673Z,24.70
2018-05-21T11:27:22.381Z,24.90
2018-05-21T11:29:50.188Z,24.90
2018-05-21T11:32:17.846Z,25.10
2018-05-21T11:34:45.529Z,25.30
2018-05-21T11:37:13.247Z,25.60
2018-05-21T11:39:41.006Z,25.80
2018-05-21T11:42:08.698Z,25.90
2018-05-21T11:44:36.422Z,26.10
2018-05-21T11:47:04.116Z,26.00
2018-05-21T11:49:31.802Z,26.30
2018-05-21T11:51:59.555Z,26.20
2018-05-21T11:54:27.225Z,26.30
2018-05-21T11:56:54.885Z,26.00
2018-05-21T11:59:22.585Z,25.90
2018-05-21T12:01:51.126Z,26.20
2018-05-21T12:04:18.870Z,26.20
2018-05-21T12:06:46.560Z,26.50
2018-05-21T12:09:14.244Z,27.00
2018-05-21T12:11:41.972Z,27.70
2018-05-21T12:14:09.749Z,28.40
2018-05-21T12:16:37.760Z,28.80
2018-05-21T12:19:05.438Z,29.50
2018-05-21T12:21:33.276Z,31.10
2018-05-21T12:24:00.978Z,31.50
2018-05-21T12:26:29.658Z,31.50
2018-05-21T12:28:57.465Z,31.40
2018-05-21T12:31:25.189Z,32.50
2018-05-21T12:33:53.005Z,34.50
2018-05-21T12:36:20.744Z,35.60
2018-05-21T12:38:48.470Z,36.00
2018-05-21T12:41:16.265Z,35.80
2018-05-21T12:43:43.932Z,35.40
2018-05-21T12:46:11.692Z,35.50
2018-05-21T12:48:39.347Z,36.30
2018-05-21T12:51:07.078Z,36.70
2018-05-21T12:53:34.746Z,37.40
2018-05-21T12:56:02.533Z,37.90
2018-05-21T12:58:30.241Z,38.20
2018-05-21T13:00:58.691Z,36.80
2018-05-21T13:03:26.358Z,36.80
2018-05-21T13:05:54.115Z,38.00
2018-05-21T13:08:21.760Z,38.60
2018-05-21T13:10:49.451Z,38.50
2018-05-21T13:13:17.397Z,39.20
2018-05-21T13:15:45.091Z,39.20
2018-05-21T13:18:12.746Z,37.70
2018-05-21T13:20:40.483Z,36.50
2018-05-21T13:23:08.169Z,34.40
2018-05-21T13:25:35.901Z,34.00
2018-05-21T13:28:03.671Z,35.90
2018-05-21T13:30:31.391Z,34.60
2018-05-21T13:32:59.913Z,33.80
2018-05-21T13:35:28.031Z,33.80
2018-05-21T13:37:55.730Z,34.60
2018-05-21T13:40:24.165Z,36.30
2018-05-21T13:42:51.835Z,36.20
2018-05-21T13:45:19.518Z,36.40
2018-05-21T13:47:47.966Z,35.30
2018-05-21T13:50:15.637Z,35.20
2018-05-21T13:52:43.367Z,35.80
2018-05-21T13:55:11.072Z,35.30
2018-05-21T13:57:38.733Z,34.80
2018-05-21T14:00:06.434Z,35.50
2018-05-21T14:02:34.856Z,36.30
2018-05-21T14:05:02.559Z,36.20
2018-05-21T14:07:30.221Z,36.40
2018-05-21T14:09:58.788Z,37.10
2018-05-21T14:12:26.603Z,37.10
2018-05-21T14:14:54.207Z,37.40
2018-05-21T14:17:21.945Z,37.60
2018-05-21T14:19:49.597Z,37.10
2018-05-21T14:22:17.288Z,37.60
2018-05-21T14:24:44.945Z,37.30
2018-05-21T14:27:12.726Z,36.00
2018-05-21T14:29:40.447Z,35.70
2018-05-21T14:32:08.139Z,34.80
2018-05-21T14:34:35.919Z,34.10
2018-05-21T14:37:03.586Z,34.50
2018-05-21T14:39:31.245Z,35.60
2018-05-21T14:41:58.940Z,35.40
2018-05-21T14:44:27.369Z,36.80
2018-05-21T14:46:55.084Z,36.80
2018-05-21T14:49:23.515Z,36.40
2018-05-21T14:51:51.211Z,36.40
2018-05-21T14:54:18.907Z,37.30
2018-05-21T14:56:46.602Z,36.70
2018-05-21T14:59:14.261Z,36.40
2018-05-21T15:01:41.951Z,35.50
2018-05-21T15:04:09.643Z,35.20
2018-05-21T15:06:37.310Z,34.60
2018-05-21T15:09:05.754Z,35.20
2018-05-21T15:11:34.218Z,35.50
2018-05-21T15:14:01.902Z,35.40
2018-05-21T15:16:29.603Z,34.50
2018-05-21T15:18:58.034Z,34.60
2018-05-21T15:21:25.799Z,34.50
2018-05-21T15:23:53.493Z,34.30
2018-05-21T15:26:21.158Z,34.60
2018-05-21T15:28:48.838Z,35.40
2018-05-21T15:31:17.290Z,35.50
2018-05-21T15:33:45.011Z,35.50
2018-05-21T15:36:12.835Z,35.50
2018-05-21T15:38:40.577Z,35.40
2018-05-21T15:41:08.226Z,35.60
2018-05-21T15:46:10.119Z,34.60
2018-05-21T15:48:37.887Z,34.60
2018-05-21T15:51:05.554Z,34.30
2018-05-21T15:53:33.282Z,34.40
2018-05-21T15:56:00.965Z,34.40
2018-05-21T15:58:28.693Z,34.30
2018-05-21T16:00:57.110Z,34.10
2018-05-21T16:03:24.795Z,34.10
2018-05-21T16:05:52.497Z,34.20
2018-05-21T16:08:20.177Z,34.30
2018-05-21T16:10:47.857Z,34.60
2018-05-21T16:13:15.779Z,34.60
2018-05-21T16:15:44.231Z,34.70
2018-05-21T16:18:11.953Z,34.60
2018-05-21T16:20:39.735Z,34.70
2018-05-21T16:23:07.518Z,34.40
2018-05-21T16:25:35.187Z,34.80
2018-05-21T16:28:02.863Z,34.40
2018-05-21T16:30:30.535Z,34.60
2018-05-21T16:32:58.224Z,34.30
2018-05-21T16:35:26.678Z,33.80
2018-05-21T16:37:54.381Z,33.70
2018-05-21T16:40:22.103Z,33.40
2018-05-21T16:42:49.771Z,33.00
2018-05-21T16:45:18.208Z,32.60
2018-05-21T16:47:45.928Z,32.50
2018-05-21T16:50:13.621Z,32.00
2018-05-21T16:52:41.328Z,31.60
2018-05-21T16:55:09.080Z,31.40
2018-05-21T16:57:36.763Z,31.10
2018-05-21T17:00:04.443Z,31.00
2018-05-21T17:02:32.937Z,31.30
2018-05-21T17:05:00.616Z,31.60
2018-05-21T17:07:28.326Z,31.70
2018-05-21T17:09:55.995Z,31.90
2018-05-21T17:12:23.797Z,31.80
2018-05-21T17:14:51.480Z,32.10
2018-05-21T17:17:19.277Z,32.20
2018-05-21T17:19:47.054Z,32.20
2018-05-21T17:22:14.719Z,32.40
2018-05-21T17:24:42.467Z,32.10
2018-05-21T17:27:10.117Z,31.60
2018-05-21T17:29:37.797Z,31.50
2018-05-21T17:32:05.540Z,31.30
2018-05-21T17:34:33.219Z,30.60
2018-05-21T17:37:00.887Z,31.00
2018-05-21T17:39:28.584Z,30.80
2018-05-21T17:41:57.020Z,31.00
2018-05-21T17:44:24.767Z,30.90
2018-05-21T17:46:52.435Z,30.80
2018-05-21T17:49:20.119Z,30.80
2018-05-21T17:51:47.947Z,30.70
2018-05-21T17:54:15.560Z,30.70
2018-05-21T17:56:43.310Z,30.40
2018-05-21T17:59:11.093Z,29.90
2018-05-21T18:01:39.408Z,29.90
2018-05-21T18:04:07.187Z,29.90
2018-05-21T18:06:34.950Z,29.30
2018-05-21T18:09:02.634Z,28.90
2018-05-21T18:11:30.309Z,28.80
2018-05-21T18:13:58.044Z,28.60
2018-05-21T18:16:25.745Z,28.40
2018-05-21T18:18:53.822Z,28.10
2018-05-21T18:21:21.506Z,27.80
2018-05-21T18:23:49.204Z,27.70
2018-05-21T18:26:16.882Z,27.40
2018-05-21T18:28:44.650Z,27.50
2018-05-21T18:31:12.381Z,27.10
2018-05-21T18:33:40.074Z,26.70
2018-05-21T18:36:07.924Z,26.40
2018-05-21T18:38:35.502Z,26.00
2018-05-21T18:41:03.183Z,25.60
2018-05-21T18:43:30.850Z,25.20
2018-05-21T18:45:58.538Z,25.00
2018-05-21T18:48:26.252Z,24.60
2018-05-21T18:50:54.660Z,23.80
2018-05-21T18:53:22.375Z,23.80
2018-05-21T18:55:50.054Z,23.50
2018-05-21T18:58:17.813Z,23.30
2018-05-21T19:00:45.577Z,23.00
2018-05-21T19:03:13.258Z,22.60
2018-05-21T19:05:40.945Z,22.50
2018-05-21T19:08:08.605Z,22.30
2018-05-21T19:10:36.297Z,22.10
2018-05-21T19:13:04.746Z,21.70
2018-05-21T19:15:32.563Z,21.70
2018-05-21T19:18:00.251Z,21.50
2018-05-21T19:20:28.047Z,21.30
2018-05-21T19:22:55.781Z,21.20
2018-05-21T19:25:23.476Z,21.00
2018-05-21T19:27:51.137Z,20.90
2018-05-21T19:30:18.899Z,20.80
2018-05-21T19:32:46.629Z,20.60
2018-05-21T19:35:14.318Z,20.50
2018-05-21T19:37:41.991Z,20.30
2018-05-21T19:40:09.661Z,20.20
2018-05-21T19:42:37.398Z,20.00
2018-05-21T19:45:05.145Z,19.90
2018-05-21T19:47:33.000Z,19.80
2018-05-21T19:50:00.715Z,19.60
2018-05-21T19:52:28.406Z,19.60
2018-05-21T19:54:56.887Z,19.40
2018-05-21T19:57:24.546Z,19.40
2018-05-21T19:59:53.136Z,19.20
2018-05-21T20:02:20.760Z,19.20
2018-05-21T20:04:48.507Z,19.20
2018-05-21T20:07:16.246Z,19.10
2018-05-21T20:09:43.868Z,19.00
2018-05-21T20:12:11.597Z,19.00
2018-05-21T20:14:39.269Z,18.90
2018-05-21T20:17:07.023Z,18.80
2018-05-21T20:19:34.791Z,18.80
2018-05-21T20:22:02.496Z,18.70
2018-05-21T20:24:30.925Z,18.70
2018-05-21T20:26:58.625Z,18.70
2018-05-21T20:29:26.286Z,18.70
2018-05-21T20:31:53.973Z,18.60
2018-05-21T20:34:21.682Z,18.50
2018-05-21T20:36:50.165Z,18.40
2018-05-21T20:39:17.826Z,18.40
2018-05-21T20:41:45.589Z,18.40
2018-05-21T20:44:13.267Z,18.30
2018-05-21T20:46:41.023Z,18.30
2018-05-21T20:49:08.787Z,18.20
2018-05-21T20:51:36.472Z,18.20
2018-05-21T20:54:04.139Z,18.10
2018-05-21T20:56:31.831Z,18.10
2018-05-21T20:58:59.626Z,18.00
2018-05-21T21:01:27.413Z,18.00
2018-05-21T21:03:55.090Z,17.90
2018-05-21T21:06:22.837Z,17.80
2018-05-21T21:08:50.506Z,17.80
2018-05-21T21:11:18.203Z,17.60
2018-05-21T21:13:45.959Z,17.60
2018-05-21T21:16:13.698Z,17.50
2018-05-21T21:18:41.368Z,17.50
2018-05-21T21:21:09.045Z,17.50
2018-05-21T21:23:36.743Z,17.40
2018-05-21T21:26:05.211Z,17.30
2018-05-21T21:28:32.971Z,17.30
2018-05-21T21:31:00.707Z,17.30
2018-05-21T21:33:28.339Z,17.20
2018-05-21T21:35:56.036Z,17.10
2018-05-21T21:38:23.698Z,17.10
2018-05-21T21:40:51.395Z,17.00
2018-05-21T21:43:19.919Z,17.00
2018-05-21T21:45:47.578Z,16.90
2018-05-21T21:48:15.258Z,17.00
2018-05-21T21:50:43.005Z,16.90
2018-05-21T21:53:10.799Z,16.90
2018-05-21T21:55:39.217Z,16.80
2018-05-21T21:58:06.897Z,16.80
2018-05-21T22:00:34.565Z,16.80
2018-05-21T22:03:02.247Z,16.80
2018-05-21T22:05:29.926Z,16.80
2018-05-21T22:07:58.620Z,16.80
2018-05-21T22:10:27.133Z,16.70
2018-05-21T22:12:54.809Z,16.70
2018-05-21T22:15:22.491Z,16.70
2018-05-21T22:17:50.225Z,16.70
2018-05-21T22:20:18.006Z,16.60
2018-05-21T22:22:45.695Z,16.60
2018-05-21T22:25:13.435Z,16.60
2018-05-21T22:27:41.205Z,16.60
2018-05-21T22:30:08.879Z,16.60
2018-05-21T22:32:36.616Z,16.60
2018-05-21T22:35:04.278Z,16.50
2018-05-21T22:37:31.957Z,16.50
2018-05-21T22:39:59.627Z,16.50
2018-05-21T22:42:27.329Z,16.40
2018-05-21T22:44:54.990Z,16.40
2018-05-21T22:47:23.441Z,16.30
2018-05-21T22:49:51.183Z,16.30
2018-05-21T22:52:18.935Z,16.30
2018-05-21T22:54:46.597Z,16.30
2018-05-21T22:57:14.384Z,16.20
2018-05-21T22:59:42.016Z,16.20
2018-05-21T23:02:09.810Z,16.20
2018-05-21T23:04:37.482Z,16.10
2018-05-21T23:07:05.174Z,16.10
2018-05-21T23:09:32.830Z,16.10
2018-05-21T23:12:01.361Z,16.00
2018-05-21T23:14:29.033Z,16.00
2018-05-21T23:16:56.782Z,16.00
2018-05-21T23:19:24.450Z,15.90
2018-05-21T23:21:52.143Z,15.90
2018-05-21T23:24:19.905Z,15.90
2018-05-21T23:26:47.637Z,15.90
2018-05-21T23:29:15.414Z,15.90
2018-05-21T23:31:43.087Z,15.90
2018-05-21T23:34:10.775Z,15.80
2018-05-21T23:36:38.491Z,15.80
2018-05-21T23:39:06.265Z,15.90
2018-05-21T23:41:33.950Z,15.80
2018-05-21T23:44:02.389Z,15.70
2018-05-21T23:46:30.054Z,15.70
2018-05-21T23:48:57.747Z,15.70
2018-05-21T23:51:26.232Z,15.70
2018-05-21T23:53:53.911Z,15.60
2018-05-21T23:56:22.368Z,15.70
2018-05-21T23:58:50.076Z,15.60
